createdAt,value
2018-05-21T00:01:53.564Z,2.63
2018-05-21T00:06:44.439Z,2.70
2018-05-21T00:11:35.338Z,2.80
2018-05-21T00:16:26.234Z,2.83
2018-05-21T00:21:17.186Z,2.77
2018-05-21T00:26:08.080Z,2.63
2018-05-21T00:30:58.960Z,2.63
2018-05-21T00:35:50.595Z,2.60
2018-05-21T00:40:42.252Z,3.30
2018-05-21T00:45:33.877Z,2.77
2018-05-21T00:50:25.532Z,2.97
2018-05-21T01:00:40.902Z,2.50
2018-05-21T01:05:31.792Z,2.93
2018-05-21T01:10:22.686Z,3.30
2018-05-21T01:15:13.564Z,2.73
2018-05-21T01:20:04.456Z,2.63
2018-05-21T01:24:55.344Z,2.83
2018-05-21T01:29:46.232Z,3.40
2018-05-21T01:34:37.859Z,2.80
2018-05-21T01:39:29.492Z,3.20
2018-05-21T01:44:20.380Z,3.47
2018-05-21T01:49:11.269Z,3.20
2018-05-21T01:54:02.164Z,2.83
2018-05-21T01:58:53.809Z,3.20
2018-05-21T02:03:44.705Z,3.10
2018-05-21T02:08:36.405Z,2.80
2018-05-21T02:13:27.270Z,2.77
2018-05-21T02:18:18.908Z,2.93
2018-05-21T02:23:10.540Z,4.13
2018-05-21T02:28:02.176Z,3.33
2018-05-21T02:32:53.817Z,3.20
2018-05-21T02:37:45.461Z,3.00
2018-05-21T02:42:36.361Z,3.13
2018-05-21T02:47:27.996Z,3.40
2018-05-21T02:52:19.632Z,3.50
2018-05-21T02:57:11.268Z,2.77
2018-05-21T03:02:02.892Z,2.47
2018-05-21T03:06:53.872Z,3.30
2018-05-21T03:11:44.762Z,3.20
2018-05-21T03:16:35.656Z,3.30
2018-05-21T03:21:27.280Z,2.93
2018-05-21T03:26:18.169Z,2.97
2018-05-21T03:31:09.061Z,3.80
2018-05-21T03:35:59.953Z,2.83
2018-05-21T03:40:51.632Z,2.93
2018-05-21T03:45:42.521Z,3.23
2018-05-21T03:50:33.416Z,3.10
2018-05-21T03:55:25.052Z,3.30
2018-05-21T04:00:29.067Z,2.90
2018-05-21T04:05:20.049Z,3.20
2018-05-21T04:10:10.945Z,2.60
2018-05-21T04:15:01.837Z,2.83
2018-05-21T04:19:53.484Z,3.07
2018-05-21T04:24:44.367Z,3.27
2018-05-21T04:29:35.266Z,2.73
2018-05-21T04:34:26.158Z,2.53
2018-05-21T04:39:17.051Z,3.13
2018-05-21T04:44:08.686Z,2.63
2018-05-21T04:49:00.320Z,2.70
2018-05-21T04:53:51.953Z,2.60
2018-05-21T04:58:43.589Z,2.67
2018-05-21T05:03:35.272Z,2.90
2018-05-21T05:08:26.164Z,2.90
2018-05-21T05:13:17.057Z,3.10
2018-05-21T05:18:08.684Z,2.93
2018-05-21T05:23:00.331Z,2.80
2018-05-21T05:27:51.960Z,2.60
2018-05-21T05:32:43.589Z,2.37
2018-05-21T05:37:35.220Z,2.70
2018-05-21T05:42:26.100Z,2.20
2018-05-21T05:47:16.992Z,3.00
2018-05-21T05:52:07.916Z,3.00
2018-05-21T05:56:58.800Z,3.03
2018-05-21T06:01:50.440Z,2.97
2018-05-21T06:06:42.077Z,2.67
2018-05-21T06:11:33.723Z,3.07
2018-05-21T06:16:24.660Z,2.50
2018-05-21T06:21:15.556Z,2.40
2018-05-21T06:26:07.190Z,2.70
2018-05-21T06:30:58.824Z,2.80
2018-05-21T06:35:50.452Z,2.60
2018-05-21T06:40:42.084Z,2.43
2018-05-21T06:45:33.720Z,2.93
2018-05-21T06:50:25.365Z,2.73
2018-05-21T06:55:16.998Z,3.00
2018-05-21T07:00:08.624Z,2.23
2018-05-21T07:05:00.265Z,2.20
2018-05-21T07:09:51.900Z,2.20
2018-05-21T07:14:43.540Z,1.90
2018-05-21T07:19:35.180Z,1.80
2018-05-21T07:24:26.904Z,1.70
2018-05-21T07:29:17.766Z,1.83
2018-05-21T07:34:08.628Z,2.20
2018-05-21T07:39:00.312Z,2.30
2018-05-21T07:43:51.193Z,2.53
2018-05-21T07:48:42.828Z,2.20
2018-05-21T07:53:34.456Z,2.30
2018-05-21T07:58:25.340Z,2.10
2018-05-21T08:03:16.229Z,2.60
2018-05-21T08:08:07.129Z,1.90
2018-05-21T08:12:58.020Z,1.80
2018-05-21T08:17:48.901Z,1.70
2018-05-21T08:22:39.798Z,1.80
2018-05-21T08:27:30.692Z,1.73
2018-05-21T08:32:22.337Z,1.50
2018-05-21T08:37:13.960Z,1.30
2018-05-21T08:42:05.597Z,1.43
2018-05-21T08:46:57.230Z,1.30
2018-05-21T08:51:48.866Z,1.47
2018-05-21T08:56:40.567Z,1.37
2018-05-21T09:01:31.408Z,2.20
2018-05-21T09:06:22.405Z,2.30
2018-05-21T09:11:13.292Z,1.90
2018-05-21T09:16:04.192Z,1.80
2018-05-21T09:20:55.084Z,1.87
2018-05-21T09:25:45.973Z,1.63
2018-05-21T09:30:36.860Z,1.60
2018-05-21T09:35:27.796Z,1.60
2018-05-21T09:40:18.725Z,1.83
2018-05-21T09:45:09.624Z,1.83
2018-05-21T09:50:00.528Z,2.60
2018-05-21T09:54:51.428Z,2.10
2018-05-21T09:59:43.064Z,1.97
2018-05-21T10:04:34.703Z,2.60
2018-05-21T10:09:26.397Z,2.03
2018-05-21T10:14:17.292Z,2.00
2018-05-21T10:19:08.190Z,2.30
2018-05-21T10:23:59.080Z,2.27
2018-05-21T10:28:50.725Z,2.00
2018-05-21T10:33:42.364Z,2.40
2018-05-21T10:38:33.260Z,2.50
2018-05-21T10:43:24.152Z,3.50
2018-05-21T10:48:15.052Z,3.30
2018-05-21T10:53:05.956Z,2.43
2018-05-21T10:57:56.859Z,2.50
2018-05-21T11:02:47.771Z,2.70
2018-05-21T11:07:38.666Z,2.60
2018-05-21T11:12:29.557Z,2.53
2018-05-21T11:17:20.448Z,2.17
2018-05-21T11:22:11.349Z,2.10
2018-05-21T11:27:02.236Z,2.20
2018-05-21T11:31:53.133Z,2.00
2018-05-21T11:36:44.041Z,1.90
2018-05-21T11:41:34.999Z,2.60
2018-05-21T11:46:26.715Z,2.50
2018-05-21T11:51:18.360Z,2.60
2018-05-21T11:56:10.059Z,2.90
2018-05-21T12:01:00.964Z,2.60
2018-05-21T12:05:51.865Z,2.83
2018-05-21T12:10:43.500Z,2.13
2018-05-21T12:15:35.277Z,2.50
2018-05-21T12:20:26.197Z,2.30
2018-05-21T12:25:17.095Z,2.00
2018-05-21T12:30:08.008Z,2.10
2018-05-21T12:34:58.911Z,1.77
2018-05-21T12:39:49.803Z,2.20
2018-05-21T12:44:41.441Z,2.33
2018-05-21T12:49:32.343Z,1.80
2018-05-21T12:54:23.244Z,1.70
2018-05-21T12:59:14.148Z,1.50
2018-05-21T13:04:05.089Z,1.60
2018-05-21T13:08:56.072Z,1.63
2018-05-21T13:13:46.897Z,1.53
2018-05-21T13:18:37.795Z,1.63
2018-05-21T13:23:28.692Z,1.70
2018-05-21T13:28:20.328Z,1.60
2018-05-21T13:33:11.974Z,1.70
2018-05-21T13:38:03.617Z,1.60
2018-05-21T13:42:54.519Z,1.90
2018-05-21T13:47:46.156Z,1.57
2018-05-21T13:52:37.793Z,1.93
2018-05-21T13:57:29.428Z,1.30
2018-05-21T14:02:21.072Z,1.50
2018-05-21T14:07:12.696Z,1.50
2018-05-21T14:12:04.328Z,1.47
2018-05-21T14:16:55.964Z,1.40
2018-05-21T14:21:47.600Z,1.73
2018-05-21T14:26:39.229Z,1.90
2018-05-21T14:31:30.120Z,2.10
2018-05-21T14:36:21.045Z,1.80
2018-05-21T14:41:11.941Z,1.93
2018-05-21T14:46:02.837Z,1.90
2018-05-21T14:50:53.732Z,1.90
2018-05-21T14:55:45.356Z,2.23
2018-05-21T15:00:36.338Z,1.90
2018-05-21T15:05:27.235Z,1.87
2018-05-21T15:10:18.172Z,1.90
2018-05-21T15:15:09.064Z,2.43
2018-05-21T15:19:59.959Z,2.50
2018-05-21T15:24:51.596Z,2.47
2018-05-21T15:29:43.228Z,2.03
2018-05-21T15:34:34.864Z,2.20
2018-05-21T15:39:26.505Z,2.00
2018-05-21T15:44:18.149Z,2.20
2018-05-21T15:49:09.064Z,1.90
2018-05-21T15:54:00.029Z,1.97
2018-05-21T15:58:50.937Z,2.37
2018-05-21T16:03:41.830Z,2.20
2018-05-21T16:08:32.807Z,2.60
2018-05-21T16:13:24.369Z,2.00
2018-05-21T16:18:16.099Z,2.60
2018-05-21T16:23:07.728Z,3.50
2018-05-21T16:27:59.377Z,2.33
2018-05-21T16:32:51.008Z,2.10
2018-05-21T16:37:42.637Z,2.27
2018-05-21T16:42:34.265Z,2.43
2018-05-21T16:47:25.153Z,2.43
2018-05-21T16:52:16.041Z,1.93
2018-05-21T16:57:06.932Z,2.80
2018-05-21T17:01:58.584Z,2.60
2018-05-21T17:06:49.480Z,1.97
2018-05-21T17:11:41.116Z,2.20
2018-05-21T17:16:32.751Z,2.67
2018-05-21T17:21:24.384Z,2.40
2018-05-21T17:26:16.013Z,2.20
2018-05-21T17:31:07.649Z,2.20
2018-05-21T17:35:59.372Z,2.40
2018-05-21T17:40:50.260Z,2.73
2018-05-21T17:45:41.143Z,2.20
2018-05-21T17:50:32.044Z,2.47
2018-05-21T17:55:23.692Z,2.60
2018-05-21T18:00:14.592Z,2.30
2018-05-21T18:05:06.236Z,2.53
2018-05-21T18:09:57.962Z,2.67
2018-05-21T18:14:48.856Z,2.20
2018-05-21T18:19:39.748Z,1.93
2018-05-21T18:24:30.639Z,2.93
2018-05-21T18:29:22.268Z,2.47
2018-05-21T18:34:13.904Z,2.60
2018-05-21T18:39:05.533Z,2.43
2018-05-21T18:43:57.234Z,2.30
2018-05-21T18:48:48.129Z,2.30
2018-05-21T18:53:39.020Z,2.50
2018-05-21T18:58:29.938Z,2.27
2018-05-21T19:03:20.836Z,2.30
2018-05-21T19:08:12.471Z,2.83
2018-05-21T19:13:04.220Z,2.97
2018-05-21T19:17:55.852Z,2.30
2018-05-21T19:22:47.486Z,2.93
2018-05-21T19:27:39.192Z,2.90
2018-05-21T19:32:30.085Z,2.73
2018-05-21T19:37:20.976Z,3.00
2018-05-21T19:42:11.982Z,2.47
2018-05-21T19:47:03.621Z,2.80
2018-05-21T19:51:55.285Z,2.63
2018-05-21T19:56:46.226Z,3.00
2018-05-21T20:01:37.130Z,3.17
2018-05-21T20:06:28.034Z,3.40
2018-05-21T20:11:18.921Z,3.07
2018-05-21T20:16:10.616Z,2.77
2018-05-21T20:21:01.537Z,3.17
2018-05-21T20:25:52.420Z,3.00
2018-05-21T20:30:43.364Z,3.37
2018-05-21T20:35:34.257Z,3.80
2018-05-21T20:40:25.140Z,3.00
2018-05-21T20:45:16.155Z,3.33
2018-05-21T20:50:07.025Z,2.40
2018-05-21T20:54:57.904Z,2.70
2018-05-21T20:59:49.541Z,2.97
2018-05-21T21:04:41.160Z,3.13
2018-05-21T21:09:32.149Z,2.97
2018-05-21T21:14:23.040Z,3.30
2018-05-21T21:19:13.993Z,2.70
2018-05-21T21:24:05.030Z,3.10
2018-05-21T21:28:55.928Z,2.70
2018-05-21T21:33:46.821Z,2.93
2018-05-21T21:38:37.713Z,2.87
2018-05-21T21:43:29.397Z,2.80
2018-05-21T21:48:20.331Z,2.53
2018-05-21T21:53:11.275Z,3.70
2018-05-21T21:58:02.164Z,2.90
2018-05-21T22:02:53.084Z,2.77
2018-05-21T22:07:43.989Z,3.13
2018-05-21T22:12:34.885Z,3.00
2018-05-21T22:17:25.776Z,2.73
2018-05-21T22:22:17.460Z,3.20
2018-05-21T22:27:08.385Z,2.80
2018-05-21T22:31:59.269Z,2.63
2018-05-21T22:36:50.199Z,3.17
2018-05-21T22:41:41.085Z,2.93
2018-05-21T22:46:32.700Z,2.63
2018-05-21T22:51:24.432Z,2.73
2018-05-21T22:56:15.438Z,2.90
2018-05-21T23:01:06.339Z,3.10
2018-05-21T23:05:57.236Z,2.73
2018-05-21T23:10:48.197Z,2.73
2018-05-21T23:15:39.109Z,2.40
2018-05-21T23:20:30.011Z,3.00
2018-05-21T23:25:20.908Z,3.27
2018-05-21T23:30:11.979Z,2.57
2018-05-21T23:35:02.961Z,3.20
2018-05-21T23:39:53.908Z,2.90
2018-05-21T23:44:44.796Z,3.10
2018-05-21T23:49:35.692Z,2.93
2018-05-21T23:54:27.323Z,2.77
2018-05-21T23:59:18.956Z,2.87
